Time;durP1;ratioP1;P1;durP2;ratioP2;P2;SDS_P1;SDS_P2;PMS_P1;PMS_P2;Temp;Humidity;BMP_temperature;BMP_pressure;BME280_temperature;BME280_humidity;BME280_pressure;Samples;Min_cycle;Max_cycle;Signal;HPM_P1;HPM_P2
2022/11/16 00:02:11;;;;;;;15.93;8.23;;;;;;;8.82;100.00;95042.50;5059527;28;20200;-70
2022/11/16 00:04:38;;;;;;;13.97;8.20;;;;;;;8.83;100.00;95032.78;5059134;28;20660;-70
2022/11/16 00:07:05;;;;;;;16.77;8.57;;;;;;;8.82;100.00;95037.25;5070763;28;20234;-70
2022/11/16 00:09:32;;;;;;;18.67;7.50;;;;;;;8.82;100.00;95033.78;5069898;28;20208;-70
2022/11/16 00:12:00;;;;;;;15.37;7.73;;;;;;;8.85;100.00;95025.53;5068207;28;20207;-70
2022/11/16 00:14:29;;;;;;;20.37;8.43;;;;;;;8.83;100.00;95028.34;5070396;28;20200;-70
2022/11/16 00:16:59;;;;;;;14.73;8.13;;;;;;;8.82;100.00;95029.38;5061266;28;20210;-70
2022/11/16 00:19:26;;;;;;;17.70;8.67;;;;;;;8.78;100.00;95028.16;5067704;28;20295;-70
2022/11/16 00:21:53;;;;;;;20.77;8.10;;;;;;;8.76;100.00;95019.63;5058705;28;20207;-70
2022/11/16 00:24:22;;;;;;;20.73;8.30;;;;;;;8.74;100.00;95015.59;5058288;28;20204;-70
2022/11/16 00:26:49;;;;;;;13.43;7.70;;;;;;;8.70;100.00;95017.78;5059539;28;20204;-70
2022/11/16 00:29:18;;;;;;;16.53;8.13;;;;;;;8.67;100.00;95012.13;5069452;28;20227;-70
2022/11/16 00:31:45;;;;;;;16.07;7.93;;;;;;;8.66;100.00;95003.41;5073539;28;20212;-70
2022/11/16 00:34:13;;;;;;;12.93;7.27;;;;;;;8.67;100.00;95009.50;5077751;28;20203;-70
2022/11/16 00:36:40;;;;;;;15.40;8.77;;;;;;;8.58;100.00;95014.09;5060511;28;20220;-70
2022/11/16 00:39:06;;;;;;;18.60;8.30;;;;;;;8.58;100.00;95021.97;5058675;28;20227;-70
2022/11/16 00:41:33;;;;;;;14.17;7.97;;;;;;;8.59;100.00;95020.16;5059005;28;20206;-70
2022/11/16 00:43:59;;;;;;;16.13;8.00;;;;;;;8.63;100.00;95024.81;5057882;28;20562;-70
2022/11/16 00:46:26;;;;;;;16.40;8.07;;;;;;;8.63;100.00;95024.81;5059020;28;20204;-70
2022/11/16 00:48:52;;;;;;;15.90;8.40;;;;;;;8.68;100.00;95021.59;5058407;28;20228;-70
2022/11/16 00:51:20;;;;;;;15.00;8.50;;;;;;;8.66;100.00;95026.25;5058837;28;20201;-70
2022/11/16 00:53:47;;;;;;;18.13;8.30;;;;;;;8.49;100.00;95020.50;5057455;28;20210;-70
2022/11/16 00:56:13;;;;;;;15.97;7.93;;;;;;;8.56;100.00;95002.16;5058877;28;20204;-70
2022/11/16 00:58:40;;;;;;;18.43;8.10;;;;;;;8.56;100.00;95007.41;5058307;28;20220;-70
2022/11/16 01:01:08;;;;;;;15.30;7.57;;;;;;;8.64;100.00;95010.69;5058035;28;20215;-70
2022/11/16 01:03:36;;;;;;;17.83;8.10;;;;;;;8.66;100.00;95008.69;5062987;28;20212;-70
2022/11/16 01:06:02;;;;;;;14.80;8.60;;;;;;;8.52;100.00;95000.94;5058369;28;20201;-70
2022/11/16 01:08:31;;;;;;;14.03;8.00;;;;;;;8.67;100.00;95007.69;5057463;28;20228;-70
2022/11/16 01:12:07;;;;;;;14.50;7.77;;;;;;;8.58;100.00;95003.59;5058052;28;20208;-70
2022/11/16 01:13:44;;;;;;;15.60;8.30;;;;;;;8.61;100.00;95000.56;5064983;28;20207;-70
2022/11/16 01:16:13;;;;;;;20.47;9.07;;;;;;;8.73;100.00;95003.44;5058191;28;20204;-70
2022/11/16 01:18:40;;;;;;;15.63;7.70;;;;;;;8.61;100.00;95016.31;5057273;28;20723;-70
2022/11/16 01:21:07;;;;;;;17.23;8.57;;;;;;;8.48;100.00;95027.75;5058337;28;20201;-70
2022/11/16 01:23:35;;;;;;;18.83;8.53;;;;;;;8.53;100.00;95034.88;5057109;28;21138;-70
2022/11/16 01:26:02;;;;;;;16.17;8.90;;;;;;;8.33;100.00;95053.31;5058612;28;20204;-70
2022/11/16 01:28:29;;;;;;;19.97;8.50;;;;;;;8.43;100.00;95053.78;5057956;28;20702;-70
2022/11/16 01:30:56;;;;;;;14.77;8.73;;;;;;;8.53;100.00;95055.88;5058236;28;20214;-70
2022/11/16 01:33:23;;;;;;;17.83;9.13;;;;;;;8.53;100.00;95055.06;5063587;28;20207;-70
2022/11/16 01:35:51;;;;;;;21.53;9.73;;;;;;;8.41;100.00;95043.47;5060302;28;20200;-70
2022/11/16 01:38:17;;;;;;;21.77;10.27;;;;;;;8.45;100.00;95038.66;5057785;28;20216;-71
2022/11/16 01:40:45;;;;;;;18.13;8.77;;;;;;;8.54;100.00;95036.50;5058113;28;20201;-70
2022/11/16 01:43:16;;;;;;;18.63;9.20;;;;;;;8.60;100.00;95030.47;5056446;28;21046;-70
2022/11/16 01:45:43;;;;;;;19.03;9.60;;;;;;;8.41;100.00;95034.78;5056971;28;20203;-70
2022/11/16 01:48:11;;;;;;;22.77;8.70;;;;;;;8.50;100.00;95040.50;5060086;28;20228;-70
2022/11/16 01:50:38;;;;;;;18.43;9.60;;;;;;;8.60;100.00;95043.59;5057728;28;20214;-70
2022/11/16 01:53:08;;;;;;;13.97;8.17;;;;;;;8.58;100.00;95031.69;5056896;28;20208;-70
2022/11/16 01:55:37;;;;;;;15.97;8.73;;;;;;;8.55;100.00;95032.88;5057701;28;20201;-70
2022/11/16 01:58:06;;;;;;;18.13;9.70;;;;;;;8.55;100.00;95018.91;5057230;28;20220;-70
2022/11/16 02:00:33;;;;;;;16.43;9.20;;;;;;;8.52;100.00;95017.47;5057076;28;20259;-70
2022/11/16 02:03:00;;;;;;;19.10;9.57;;;;;;;8.49;100.00;95017.09;5057032;28;20243;-70
2022/11/16 02:05:33;;;;;;;18.83;9.23;;;;;;;8.56;100.00;95026.59;5057190;28;20254;-70
2022/11/16 02:11:26;;;;;;;16.03;8.50;;;;;;;8.66;100.00;95024.44;5057502;28;20695;-70
2022/11/16 02:14:03;;;;;;;16.60;8.80;;;;;;;8.65;100.00;95012.28;5056991;28;20204;-70
2022/11/16 02:16:39;;;;;;;16.57;9.40;;;;;;;8.68;100.00;95001.44;5057111;28;20204;-70
2022/11/16 02:19:26;;;;;;;18.37;9.87;;;;;;;8.66;100.00;95008.69;5064879;28;20245;-70
2022/11/16 02:22:04;;;;;;;17.83;8.93;;;;;;;8.66;100.00;95002.63;5065941;28;20210;-68
2022/11/16 02:24:43;;;;;;;17.17;8.40;;;;;;;8.69;100.00;95008.31;5059721;28;20211;-69
2022/11/16 02:27:43;;;;;;;16.53;9.30;;;;;;;8.71;100.00;95008.91;5061918;28;20223;-68
2022/11/16 02:30:12;;;;;;;17.80;8.37;;;;;;;8.66;100.00;94997.38;5056927;28;20201;-68
2022/11/16 02:32:44;;;;;;;15.43;8.13;;;;;;;8.63;100.00;94988.06;5068514;28;20199;-70
2022/11/16 02:35:16;;;;;;;16.70;8.10;;;;;;;8.65;100.00;94982.63;5057787;28;20586;-70
2022/11/16 02:37:50;;;;;;;16.50;9.30;;;;;;;8.62;100.00;94981.19;5062806;28;20304;-68
2022/11/16 02:40:20;;;;;;;14.10;8.40;;;;;;;8.54;100.00;94976.09;5060394;28;20203;-69
2022/11/16 02:42:52;;;;;;;17.97;8.30;;;;;;;8.62;100.00;94970.69;5060163;28;20215;-69
2022/11/16 02:45:24;;;;;;;19.60;9.63;;;;;;;8.51;100.00;94971.25;5066893;28;20200;-69
2022/11/16 02:47:53;;;;;;;20.97;8.97;;;;;;;8.55;100.00;94980.38;5056321;28;20232;-69
2022/11/16 02:50:22;;;;;;;16.33;8.40;;;;;;;8.52;100.00;94977.31;5062041;28;20205;-70
2022/11/16 02:52:48;;;;;;;16.63;8.53;;;;;;;8.46;100.00;94978.06;5058275;28;20208;-68
2022/11/16 02:55:15;;;;;;;14.67;8.43;;;;;;;8.38;100.00;94990.56;5067237;28;20211;-70
2022/11/16 02:57:50;;;;;;;16.27;8.33;;;;;;;8.33;100.00;95000.84;5056762;28;20663;-68
2022/11/16 03:00:22;;;;;;;20.00;9.80;;;;;;;8.32;100.00;95009.69;5057145;28;20668;-70
2022/11/16 03:03:15;;;;;;;21.03;8.70;;;;;;;8.45;100.00;95010.56;5061885;28;20204;-67
2022/11/16 03:05:46;;;;;;;17.50;8.37;;;;;;;8.37;100.00;95015.97;5064672;28;20208;-69
2022/11/16 03:08:18;;;;;;;17.73;9.20;;;;;;;8.37;100.00;95034.34;5057847;28;20228;-70
2022/11/16 03:13:37;;;;;;;23.10;9.27;;;;;;;8.41;100.00;95040.03;5055875;28;20303;-68
2022/11/16 03:16:09;;;;;;;20.47;9.87;;;;;;;8.47;100.00;95034.03;5057989;28;20200;-69
2022/11/16 03:18:39;;;;;;;15.83;8.80;;;;;;;8.46;100.00;95037.66;5060584;28;20231;-67
2022/11/16 03:21:13;;;;;;;19.50;9.63;;;;;;;8.51;100.00;95034.25;5063338;28;20205;-68
2022/11/16 03:23:39;;;;;;;17.87;9.57;;;;;;;8.45;100.00;95036.81;5063774;28;20200;-68
2022/11/16 03:26:08;;;;;;;22.67;9.50;;;;;;;8.44;100.00;95044.91;5063414;28;20215;-68
2022/11/16 03:28:40;;;;;;;19.23;9.30;;;;;;;8.45;100.00;95041.28;5071473;28;20228;-69
2022/11/16 03:31:13;;;;;;;23.00;9.70;;;;;;;8.52;100.00;95042.94;5066018;28;20203;-69
2022/11/16 03:33:44;;;;;;;16.57;9.33;;;;;;;8.54;100.00;95038.28;5065269;28;20982;-68
2022/11/16 03:36:17;;;;;;;19.07;9.63;;;;;;;8.48;100.00;95043.50;5056394;28;20254;-69
2022/11/16 03:38:49;;;;;;;18.43;9.83;;;;;;;8.48;100.00;95047.75;5056486;28;20335;-68
2022/11/16 03:41:17;;;;;;;18.03;9.63;;;;;;;8.52;100.00;95056.06;5057644;28;20208;-67
2022/11/16 03:43:45;;;;;;;18.10;9.27;;;;;;;8.54;100.00;95052.25;5065700;28;20203;-70
2022/11/16 03:46:15;;;;;;;20.70;8.97;;;;;;;8.54;100.00;95057.50;5060185;28;20204;-69
2022/11/16 03:48:42;;;;;;;16.13;8.67;;;;;;;8.53;100.00;95055.06;5059836;28;20232;-70
2022/11/16 03:51:11;;;;;;;18.10;9.30;;;;;;;8.61;100.00;95060.16;5064912;28;20200;-70
2022/11/16 03:53:37;;;;;;;19.43;9.70;;;;;;;8.55;100.00;95061.75;5063691;28;20226;-68
2022/11/16 03:56:04;;;;;;;16.20;9.17;;;;;;;8.57;100.00;95062.34;5059756;28;20211;-69
2022/11/16 03:58:31;;;;;;;16.13;8.60;;;;;;;8.55;100.00;95059.13;5059472;28;20223;-68
2022/11/16 04:00:57;;;;;;;14.97;8.47;;;;;;;8.56;100.00;95065.19;5065735;28;20220;-70
2022/11/16 04:03:25;;;;;;;19.03;8.73;;;;;;;8.62;100.00;95072.28;5059146;28;20211;-69
2022/11/16 04:25:35;;;;;;;16.20;8.77;;;;;;;8.65;100.00;95066.63;5059209;28;20200;-69
2022/11/16 04:28:15;;;;;;;18.40;9.43;;;;;;;8.65;100.00;95064.81;5059189;28;20228;-70
2022/11/16 04:38:56;;;;;;;17.67;9.63;;;;;;;8.67;100.00;95051.50;5058581;28;20297;-70
2022/11/16 04:44:07;;;;;;;23.30;10.90;;;;;;;8.61;100.00;95041.78;5058720;28;20214;-69
2022/11/16 04:49:20;;;;;;;23.23;11.70;;;;;;;8.52;100.00;95021.94;5062921;28;20216;-70
2022/11/16 04:51:48;;;;;;;19.70;9.17;;;;;;;8.53;100.00;95008.63;5058594;28;20269;-69
2022/11/16 04:54:15;;;;;;;20.27;9.80;;;;;;;8.51;100.00;94999.31;5056848;28;20669;-69
2022/11/16 04:56:41;;;;;;;19.17;8.77;;;;;;;8.45;100.00;95004.53;5058672;28;21232;-70
2022/11/16 04:59:08;;;;;;;18.00;8.47;;;;;;;8.49;100.00;95002.13;5058275;28;20205;-69
2022/11/16 05:04:19;;;;;;;18.40;9.57;;;;;;;8.38;100.00;95011.56;5061020;28;20211;-70
2022/11/16 05:06:46;;;;;;;23.67;10.83;;;;;;;8.41;100.00;95029.53;5066385;28;20598;-70
2022/11/16 05:09:14;;;;;;;26.40;12.47;;;;;;;8.49;100.00;95040.72;5060625;28;20259;-70
2022/11/16 05:11:40;;;;;;;30.80;12.67;;;;;;;8.51;100.00;95041.31;5060026;28;20215;-70
2022/11/16 05:14:08;;;;;;;26.13;13.13;;;;;;;8.47;100.00;95052.41;5066899;28;20211;-70
2022/11/16 05:16:34;;;;;;;29.43;13.00;;;;;;;8.50;100.00;95044.94;5059115;28;20215;-70
2022/11/16 05:21:45;;;;;;;26.33;11.80;;;;;;;8.62;100.00;95033.69;5066134;28;20212;-70
2022/11/16 05:26:57;;;;;;;28.57;13.40;;;;;;;8.75;100.00;95023.25;5058058;28;20212;-70
2022/11/16 05:29:23;;;;;;;22.33;12.20;;;;;;;8.71;100.00;95029.09;5062171;28;20224;-70
2022/11/16 05:31:50;;;;;;;24.37;12.37;;;;;;;8.76;100.00;95019.63;5065597;28;20204;-70
2022/11/16 05:34:16;;;;;;;28.47;12.83;;;;;;;8.79;100.00;95016.59;5057083;28;20208;-70
2022/11/16 05:36:43;;;;;;;24.33;12.23;;;;;;;8.80;100.00;95012.97;5057652;28;20218;-69
2022/11/16 05:39:11;;;;;;;27.13;13.30;;;;;;;8.84;100.00;95008.16;5057756;28;20201;-70
2022/11/16 05:41:37;;;;;;;22.30;11.53;;;;;;;8.82;100.00;95010.16;5057362;28;20212;-70
2022/11/16 05:44:05;;;;;;;28.83;12.90;;;;;;;9.00;100.00;95015.69;5057020;28;20200;-69
2022/11/16 05:46:32;;;;;;;25.77;11.70;;;;;;;8.87;100.00;95011.22;5064978;28;20201;-70
2022/11/16 05:48:58;;;;;;;23.67;11.30;;;;;;;8.91;100.00;95017.69;5057074;28;20228;-70
2022/11/16 05:51:25;;;;;;;22.30;11.03;;;;;;;8.91;100.00;95025.56;5062477;28;20207;-69
2022/11/16 05:53:51;;;;;;;24.17;10.30;;;;;;;8.89;100.00;95018.88;5057415;28;20208;-69
2022/11/16 05:56:18;;;;;;;19.53;10.67;;;;;;;8.94;100.00;95014.66;5062456;28;20208;-70
2022/11/16 05:58:45;;;;;;;23.10;9.80;;;;;;;9.01;100.00;95026.00;5057308;28;20216;-70
2022/11/16 06:01:13;;;;;;;23.23;10.10;;;;;;;9.08;100.00;95018.16;5057232;28;20208;-70
2022/11/16 06:03:40;;;;;;;21.77;10.37;;;;;;;9.07;100.00;95025.22;5056406;28;20204;-69
2022/11/16 06:06:07;;;;;;;23.83;10.30;;;;;;;9.10;100.00;95022.22;5057166;28;20208;-70
2022/11/16 06:08:33;;;;;;;21.60;9.83;;;;;;;9.08;100.00;95018.97;5057243;28;20220;-69
2022/11/16 06:11:02;;;;;;;20.43;9.73;;;;;;;9.14;100.00;95023.44;5064915;28;20581;-69
2022/11/16 06:13:28;;;;;;;21.23;9.37;;;;;;;9.16;100.00;95019.59;5056221;28;20626;-69
2022/11/16 06:15:55;;;;;;;23.67;10.90;;;;;;;9.07;100.00;95017.34;5057077;28;20200;-70
2022/11/16 06:18:23;;;;;;;22.13;10.23;;;;;;;9.22;100.00;95020.63;5061060;28;20228;-69
2022/11/16 06:20:49;;;;;;;24.57;10.50;;;;;;;9.24;100.00;95024.66;5057276;28;20204;-70
2022/11/16 06:23:16;;;;;;;25.47;10.90;;;;;;;9.24;100.00;95021.22;5056608;28;20206;-70
2022/11/16 06:25:43;;;;;;;23.33;10.33;;;;;;;9.23;100.00;95019.63;5057001;28;20619;-70
2022/11/16 06:28:09;;;;;;;26.20;10.60;;;;;;;9.25;100.00;95015.78;5056929;28;20246;-70
2022/11/16 06:30:36;;;;;;;27.87;9.83;;;;;;;9.28;100.00;95017.22;5056998;28;20235;-70
2022/11/16 06:33:03;;;;;;;31.40;11.07;;;;;;;9.35;100.00;95020.66;5056270;28;20201;-70
2022/11/16 06:35:32;;;;;;;27.50;10.90;;;;;;;9.39;100.00;95019.25;5061089;28;20675;-69
2022/11/16 06:37:58;;;;;;;28.47;11.23;;;;;;;9.33;100.00;95014.78;5056908;28;21189;-69
2022/11/16 06:40:25;;;;;;;23.67;10.90;;;;;;;9.33;100.00;95022.66;5070270;28;20563;-69
2022/11/16 06:42:52;;;;;;;28.23;11.47;;;;;;;9.33;100.00;95017.41;5056616;28;20200;-69
2022/11/16 06:45:18;;;;;;;21.70;10.33;;;;;;;9.31;100.00;95024.69;5057682;28;20204;-69
2022/11/16 06:47:45;;;;;;;23.60;11.23;;;;;;;9.36;100.00;95028.34;5056439;28;20224;-69
2022/11/16 06:50:11;;;;;;;27.50;12.00;;;;;;;9.37;100.00;95018.66;5056949;28;20220;-69
2022/11/16 06:52:39;;;;;;;26.17;12.60;;;;;;;9.46;100.00;95023.50;5056948;28;20216;-69
2022/11/16 06:55:06;;;;;;;26.43;11.17;;;;;;;9.48;100.00;95032.03;5061689;28;20740;-69
2022/11/16 06:57:34;;;;;;;22.97;11.93;;;;;;;9.45;100.00;95029.78;5064932;28;20220;-69
2022/11/16 07:00:00;;;;;;;25.07;11.53;;;;;;;9.50;100.00;95029.19;5062545;28;20200;-69
2022/11/16 07:02:27;;;;;;;21.17;11.33;;;;;;;9.50;100.00;95029.19;5054099;28;20205;-69
2022/11/16 07:04:54;;;;;;;21.33;10.47;;;;;;;9.52;100.00;95021.91;5054897;28;20208;-68
2022/11/16 07:07:20;;;;;;;23.67;10.90;;;;;;;9.53;100.00;95034.03;5059523;28;20228;-69
2022/11/16 07:09:48;;;;;;;21.40;10.23;;;;;;;9.56;100.00;95038.88;5054830;28;20228;-69
2022/11/16 07:12:15;;;;;;;20.27;10.17;;;;;;;9.52;100.00;95046.38;5056759;28;20731;-70
2022/11/16 07:14:41;;;;;;;22.20;9.77;;;;;;;9.50;100.00;95043.13;5056461;28;20207;-69
2022/11/16 07:17:08;;;;;;;20.40;10.13;;;;;;;9.53;100.00;95044.56;5058073;28;20224;-69
2022/11/16 07:19:35;;;;;;;21.27;10.97;;;;;;;9.56;100.00;95046.78;5061398;28;20200;-69
2022/11/16 07:22:02;;;;;;;19.80;9.80;;;;;;;9.57;100.00;95045.78;5059750;28;20200;-69
2022/11/16 07:24:28;;;;;;;20.90;10.53;;;;;;;9.61;100.00;95057.50;5057630;28;20677;-69
2022/11/16 07:26:56;;;;;;;22.07;10.30;;;;;;;9.71;100.00;95066.63;5058458;28;20656;-69
2022/11/16 07:29:23;;;;;;;20.97;9.83;;;;;;;9.73;100.00;95064.63;5059518;28;20247;-69
2022/11/16 07:31:50;;;;;;;17.60;8.80;;;;;;;9.74;100.00;95069.69;5070057;28;20291;-69
2022/11/16 07:34:17;;;;;;;22.77;10.03;;;;;;;9.76;100.00;95072.94;5066330;28;20192;-69
2022/11/16 07:36:44;;;;;;;21.30;8.97;;;;;;;9.89;100.00;95078.22;5062670;28;20212;-69
2022/11/16 07:39:11;;;;;;;19.57;9.03;;;;;;;9.88;100.00;95068.69;5065027;28;20223;-70
2022/11/16 07:41:38;;;;;;;20.80;9.37;;;;;;;9.81;100.00;95074.94;5066142;28;21126;-69
2022/11/16 07:44:07;;;;;;;21.37;9.20;;;;;;;10.02;100.00;95075.63;5065625;28;20296;-69
2022/11/16 07:46:33;;;;;;;19.70;8.70;;;;;;;9.96;100.00;95073.78;5059730;28;21108;-69
2022/11/16 07:49:00;;;;;;;27.90;9.60;;;;;;;9.94;100.00;95081.06;5059444;28;20716;-69
2022/11/16 07:51:27;;;;;;;24.20;9.97;;;;;;;9.95;100.00;95085.31;5060070;28;20211;-70
2022/11/16 07:53:55;;;;;;;22.17;9.50;;;;;;;10.03;100.00;95079.03;5059221;28;20215;-69
2022/11/16 07:56:22;;;;;;;20.03;9.07;;;;;;;9.99;100.00;95081.28;5059326;28;20203;-69
2022/11/16 07:58:48;;;;;;;15.27;7.57;;;;;;;10.05;100.00;95090.19;5059190;28;20225;-69
2022/11/16 08:01:17;;;;;;;19.17;8.27;;;;;;;10.15;100.00;95091.41;5059286;28;20762;-69
2022/11/16 08:03:45;;;;;;;18.90;9.33;;;;;;;10.10;100.00;95091.22;5058913;28;20873;-69
2022/11/16 08:06:14;;;;;;;21.13;9.17;;;;;;;10.13;100.00;95090.81;5059106;28;20211;-70
2022/11/16 08:08:41;;;;;;;21.13;8.97;;;;;;;10.17;100.00;95094.66;5058681;28;20735;-70
2022/11/16 08:11:09;;;;;;;19.67;8.43;;;;;;;10.20;100.00;95089.00;5059836;28;20221;-70
2022/11/16 08:13:37;;;;;;;21.60;8.77;;;;;;;10.27;100.00;95095.06;5059688;28;20212;-69
2022/11/16 08:16:08;;;;;;;19.20;8.50;;;;;;;10.30;100.00;95096.47;5070951;28;20216;-69
2022/11/16 08:18:37;;;;;;;25.63;8.67;;;;;;;10.31;100.00;95101.56;5062019;28;20256;-69
2022/11/16 08:21:04;;;;;;;16.57;7.83;;;;;;;10.37;100.00;95108.63;5068620;28;20311;-69
2022/11/16 08:23:31;;;;;;;16.67;8.30;;;;;;;10.27;100.00;95108.22;5057965;28;20205;-69
2022/11/16 08:25:59;;;;;;;16.93;8.40;;;;;;;10.32;100.00;95110.25;5059978;28;20206;-70
2022/11/16 08:28:26;;;;;;;13.27;5.63;;;;;;;10.30;100.00;95102.56;5058448;28;20228;-69
2022/11/16 08:30:53;;;;;;;15.30;7.37;;;;;;;10.23;100.00;95107.00;5058028;28;20726;-69
2022/11/16 08:33:20;;;;;;;18.00;8.30;;;;;;;10.28;100.00;95098.50;5058429;28;20295;-67
2022/11/16 08:35:48;;;;;;;20.63;9.73;;;;;;;10.39;100.00;95102.16;5058462;28;20295;-69
2022/11/16 08:38:15;;;;;;;19.27;8.80;;;;;;;10.37;100.00;95106.00;5058423;28;20220;-69
2022/11/16 08:40:41;;;;;;;19.47;8.80;;;;;;;10.36;100.00;95114.91;5066810;28;20196;-67
2022/11/16 08:43:09;;;;;;;16.03;7.63;;;;;;;10.28;100.00;95112.47;5058726;28;20204;-69
2022/11/16 08:45:36;;;;;;;19.53;8.80;;;;;;;10.40;100.00;95121.41;5066126;28;20211;-70
2022/11/16 08:48:03;;;;;;;22.03;8.40;;;;;;;10.42;100.00;95117.56;5058512;28;20226;-69
2022/11/16 08:50:30;;;;;;;20.73;9.37;;;;;;;10.44;100.00;95120.00;5058597;28;20224;-70
2022/11/16 08:52:58;;;;;;;19.47;8.77;;;;;;;10.56;100.00;95116.50;5057451;28;20210;-69
2022/11/16 08:55:25;;;;;;;19.77;8.90;;;;;;;10.54;100.00;95109.84;5065232;28;20210;-70
2022/11/16 08:57:52;;;;;;;16.40;8.17;;;;;;;10.55;100.00;95119.34;5059129;28;20221;-71
2022/11/16 09:00:18;;;;;;;15.90;7.90;;;;;;;10.61;100.00;95113.28;5064876;28;20196;-70
2022/11/16 09:02:45;;;;;;;16.70;8.33;;;;;;;10.73;100.00;95115.09;5061617;28;20204;-71
2022/11/16 09:05:11;;;;;;;18.13;7.97;;;;;;;10.77;100.00;95110.22;5069945;28;20204;-70
2022/11/16 09:07:38;;;;;;;19.73;8.37;;;;;;;10.97;100.00;95107.34;5060671;28;20346;-71
2022/11/16 09:10:07;;;;;;;13.30;6.70;;;;;;;10.92;100.00;95111.63;5061590;28;20228;-70
2022/11/16 09:12:34;;;;;;;16.07;7.70;;;;;;;10.87;100.00;95111.44;5057613;28;20231;-71
2022/11/16 09:15:01;;;;;;;13.03;6.03;;;;;;;10.90;100.00;95107.59;5058224;28;20196;-70
2022/11/16 09:17:27;;;;;;;15.83;7.60;;;;;;;11.11;100.00;95108.94;5060519;28;20231;-71
2022/11/16 09:19:54;;;;;;;17.03;8.00;;;;;;;11.34;100.00;95108.44;5057891;28;20196;-70
2022/11/16 09:22:20;;;;;;;19.63;7.73;;;;;;;11.41;100.00;95110.03;5057895;28;20205;-71
2022/11/16 09:24:47;;;;;;;10.37;3.73;;;;;;;11.54;100.00;95114.50;5061138;28;20292;-71
2022/11/16 09:27:15;;;;;;;12.97;7.07;;;;;;;11.61;100.00;95106.34;5062003;28;20793;-71
2022/11/16 09:29:42;;;;;;;12.33;6.13;;;;;;;11.37;100.00;95115.97;5067368;28;20235;-71
2022/11/16 09:32:08;;;;;;;10.70;5.70;;;;;;;11.34;100.00;95114.56;5057688;28;20200;-71
2022/11/16 09:34:35;;;;;;;12.40;6.30;;;;;;;11.29;100.00;95113.53;5064608;28;20203;-70
2022/11/16 09:37:02;;;;;;;12.40;6.20;;;;;;;11.44;100.00;95109.63;5058725;28;20208;-71
2022/11/16 09:39:31;;;;;;;12.20;6.00;;;;;;;11.41;100.00;95112.69;5069142;28;20210;-71
2022/11/16 09:42:14;;;;;;;14.00;7.23;;;;;;;11.35;100.00;95118.78;5065873;28;20200;-71
2022/11/16 09:45:05;;;;;;;10.93;6.03;;;;;;;11.47;100.00;95119.78;5069064;28;20324;-71
2022/11/16 09:47:47;;;;;;;6.20;3.70;;;;;;;11.51;100.00;95120.16;5069847;28;20277;-71
2022/11/16 09:50:26;;;;;;;11.20;5.57;;;;;;;11.60;100.00;95115.25;5071349;28;20957;-71
2022/11/16 09:52:56;;;;;;;15.00;7.00;;;;;;;11.71;100.00;95117.25;5064948;28;20215;-71
2022/11/16 09:55:28;;;;;;;11.33;5.80;;;;;;;11.86;100.00;95120.44;5067683;28;20210;-71
2022/11/16 09:57:58;;;;;;;10.77;4.50;;;;;;;11.90;100.00;95126.06;5065082;28;20227;-71
2022/11/16 10:00:28;;;;;;;8.93;4.97;;;;;;;11.84;100.00;95117.19;5060613;28;20196;-71
2022/11/16 10:03:02;;;;;;;10.60;4.87;;;;;;;12.05;100.00;95119.47;5065138;28;20313;-71
2022/11/16 10:05:33;;;;;;;10.70;5.00;;;;;;;12.28;100.00;95120.56;5067946;28;20701;-71
2022/11/16 10:08:06;;;;;;;12.43;5.33;;;;;;;12.40;100.00;95116.19;5058506;28;20224;-71
2022/11/16 10:10:38;;;;;;;8.33;4.23;;;;;;;12.50;100.00;95119.16;5064051;28;20259;-71
2022/11/16 10:13:16;;;;;;;11.47;4.53;;;;;;;12.82;100.00;95120.72;5067831;28;20675;-72
2022/11/16 10:15:56;;;;;;;8.17;4.17;;;;;;;12.71;100.00;95105.56;5058589;28;20764;-72
2022/11/16 10:18:35;;;;;;;8.10;3.50;;;;;;;12.81;100.00;95111.19;5063545;28;20238;-72
2022/11/16 10:21:23;;;;;;;5.43;3.20;;;;;;;12.82;100.00;95112.78;5057397;28;20200;-72
2022/11/16 10:24:04;;;;;;;7.77;3.63;;;;;;;12.71;100.00;95110.84;5056728;28;20479;-71
2022/11/16 10:26:39;;;;;;;5.80;3.23;;;;;;;12.68;100.00;95113.09;5064928;28;20195;-72
2022/11/16 10:29:19;;;;;;;5.17;2.93;;;;;;;12.82;100.00;95104.88;5057123;28;20224;-72
2022/11/16 10:32:12;;;;;;;8.17;4.47;;;;;;;12.76;100.00;95108.38;5064053;28;20214;-71
2022/11/16 10:34:45;;;;;;;8.07;4.17;;;;;;;12.75;100.00;95106.75;5056771;28;20210;-71
2022/11/16 10:37:13;;;;;;;7.33;3.63;;;;;;;12.66;100.00;95100.13;5061484;28;20708;-71
2022/11/16 10:39:40;;;;;;;5.67;3.17;;;;;;;12.73;100.00;95108.81;5059077;28;20209;-71
2022/11/16 10:42:11;;;;;;;5.53;3.30;;;;;;;12.76;100.00;95098.59;5056650;28;20211;-71
2022/11/16 10:44:41;;;;;;;7.77;4.50;;;;;;;12.75;100.00;95096.16;5056300;28;20203;-71
2022/11/16 10:47:17;;;;;;;8.90;4.17;;;;;;;12.66;100.00;95099.31;5062377;28;20223;-71
2022/11/16 10:49:53;;;;;;;5.97;3.30;;;;;;;12.46;100.00;95102.13;5058742;28;20204;-72
2022/11/16 10:52:20;;;;;;;6.53;3.53;;;;;;;12.31;100.00;95103.47;5061734;28;20380;-72
2022/11/16 10:54:46;;;;;;;5.67;3.60;;;;;;;12.33;100.00;95104.06;5063382;28;20210;-73
2022/11/16 10:57:13;;;;;;;5.57;3.23;;;;;;;12.38;100.00;95106.88;5063257;28;20262;-72
2022/11/16 10:59:42;;;;;;;6.53;4.13;;;;;;;12.53;100.00;95097.59;5064280;28;20520;-70
2022/11/16 11:02:30;;;;;;;9.17;4.57;;;;;;;12.73;100.00;95086.84;5068342;28;20748;-70
2022/11/16 11:05:03;;;;;;;6.97;4.20;;;;;;;12.73;100.00;95089.47;5066130;28;20551;-72
2022/11/16 11:07:31;;;;;;;5.73;3.83;;;;;;;12.80;100.00;95091.03;5065950;28;20235;-71
2022/11/16 11:09:58;;;;;;;7.87;4.03;;;;;;;12.72;100.00;95082.59;5066146;28;20215;-71
2022/11/16 11:12:39;;;;;;;6.23;2.87;;;;;;;12.75;100.00;95090.88;5059842;28;20200;-71
2022/11/16 11:15:21;;;;;;;9.87;4.80;;;;;;;12.91;100.00;95093.00;5066915;28;20197;-70
2022/11/16 11:17:50;;;;;;;7.23;3.20;;;;;;;12.97;100.00;95097.41;5060264;28;20282;-69
2022/11/16 11:20:23;;;;;;;6.47;2.97;;;;;;;12.82;100.00;95089.81;5061766;28;21052;-70
2022/11/16 11:22:53;;;;;;;6.20;2.67;;;;;;;12.97;100.00;95079.72;5059160;28;20200;-69
2022/11/16 11:25:23;;;;;;;5.87;2.87;;;;;;;13.01;100.00;95083.53;5062604;28;20210;-69
2022/11/16 11:27:52;;;;;;;6.33;2.50;;;;;;;12.96;100.00;95085.25;5067129;28;20656;-71
2022/11/16 11:30:20;;;;;;;8.53;2.87;;;;;;;12.93;100.00;95090.94;5065586;28;20219;-71
2022/11/16 11:32:49;;;;;;;5.07;3.20;;;;;;;12.92;100.00;95076.94;5068157;28;20200;-70
2022/11/16 11:35:23;;;;;;;6.17;3.07;;;;;;;12.92;100.00;95076.94;5065178;28;20204;-69
2022/11/16 11:37:53;;;;;;;6.97;3.03;;;;;;;13.06;100.00;95077.59;5066114;28;20215;-70
2022/11/16 11:40:22;;;;;;;4.70;2.97;;;;;;;13.11;100.00;95075.91;5065392;28;20200;-71
2022/11/16 11:42:58;;;;;;;4.50;2.53;;;;;;;13.31;100.00;95073.03;5070427;28;20211;-72
2022/11/16 11:45:32;;;;;;;9.40;3.87;;;;;;;13.14;100.00;95077.31;5060063;28;20287;-71
2022/11/16 11:48:02;;;;;;;6.90;2.83;;;;;;;13.26;99.50;95072.91;5059878;28;20216;-71
2022/11/16 11:50:41;;;;;;;7.77;2.67;;;;;;;13.18;100.00;95078.50;5061397;28;20273;-70
2022/11/16 11:53:16;;;;;;;4.00;2.17;;;;;;;13.22;96.90;95074.38;5059553;28;20192;-71
2022/11/16 11:55:42;;;;;;;2.63;1.97;;;;;;;13.15;98.49;95074.44;5062543;28;20200;-71
2022/11/16 11:58:15;;;;;;;3.30;1.90;;;;;;;13.09;100.00;95072.66;5063509;28;20882;-70
2022/11/16 12:00:51;;;;;;;11.63;2.50;;;;;;;13.16;100.00;95070.78;5067022;28;20196;-71
2022/11/16 12:03:52;;;;;;;6.50;2.33;;;;;;;13.27;98.80;95070.03;5057755;28;20206;-71
2022/11/16 12:06:27;;;;;;;3.50;2.00;;;;;;;13.19;98.82;95066.88;5058565;28;20203;-71
2022/11/16 12:09:09;;;;;;;5.63;2.57;;;;;;;13.17;98.54;95063.63;5068644;28;20222;-71
2022/11/16 12:11:50;;;;;;;6.40;2.07;;;;;;;13.25;98.23;95065.97;5066884;28;20244;-72
2022/11/16 12:14:30;;;;;;;7.70;2.60;;;;;;;13.32;95.89;95056.94;5057960;28;20199;-72
2022/11/16 12:17:05;;;;;;;16.93;7.23;;;;;;;13.44;95.88;95055.97;5059185;28;20200;-71
2022/11/16 12:19:59;;;;;;;16.13;7.30;;;;;;;13.56;98.47;95066.63;5059582;28;20196;-71
2022/11/16 12:22:43;;;;;;;10.30;3.20;;;;;;;13.48;95.55;95061.66;5060638;28;20464;-72